Time;durP1;ratioP1;P1;durP2;ratioP2;P2;SDS_P1;SDS_P2;PMS_P1;PMS_P2;Temp;Humidity;BMP_temperature;BMP_pressure;BME280_temperature;BME280_humidity;BME280_pressure;Samples;Min_cycle;Max_cycle;Signal;HPM_P1;HPM_P2
2022/01/10 00:02:13;;;;;;;42.78;18.40;;;;;;;6.84;100.00;89195.23;1663806;86;21174;-58
2022/01/10 00:04:40;;;;;;;39.38;18.80;;;;;;;6.83;100.00;88173.06;1664137;85;21114;-63
2022/01/10 00:07:07;;;;;;;46.58;18.85;;;;;;;6.82;100.00;88851.35;1663962;85;21133;-62
2022/01/10 00:09:35;;;;;;;46.92;17.73;;;;;;;6.80;100.00;87999.28;1664069;85;21065;-62
2022/01/10 00:12:04;;;;;;;39.18;16.95;;;;;;;6.76;100.00;88163.05;1664181;86;20982;-62
2022/01/10 00:14:31;;;;;;;44.08;17.85;;;;;;;6.72;100.00;89006.53;1663938;86;21923;-63
2022/01/10 00:16:59;;;;;;;43.08;17.25;;;;;;;6.68;100.00;87131.42;1663807;86;21015;-62
2022/01/10 00:19:26;;;;;;;38.05;16.62;;;;;;;6.68;100.00;82209.19;1663984;86;21081;-64
2022/01/10 00:21:55;;;;;;;42.62;17.70;;;;;;;6.68;100.00;80005.66;1664109;85;20987;-62
2022/01/10 00:24:22;;;;;;;39.20;16.20;;;;;;;6.67;100.00;78139.56;1663813;85;21503;-62
2022/01/10 00:26:51;;;;;;;35.85;16.12;;;;;;;6.66;100.00;76952.56;1663927;86;21010;-63
2022/01/10 00:29:18;;;;;;;38.90;16.87;;;;;;;6.63;100.00;76609.84;1662984;86;21667;-58
2022/01/10 00:31:44;;;;;;;35.50;16.00;;;;;;;6.64;100.00;73733.89;1663753;85;21039;-59
2022/01/10 00:34:11;;;;;;;36.55;15.25;;;;;;;6.64;100.00;72380.70;1663128;85;21078;-59
2022/01/10 00:36:38;;;;;;;33.95;14.78;;;;;;;6.61;100.00;74237.55;1663694;85;21130;-66
2022/01/10 00:39:06;;;;;;;32.48;14.30;;;;;;;6.54;100.00;78461.84;1663744;85;21151;-58
2022/01/10 00:41:33;;;;;;;31.70;12.47;;;;;;;6.49;100.00;80149.10;1663862;86;22234;-58
2022/01/10 00:44:01;;;;;;;27.75;12.05;;;;;;;6.46;100.00;80653.27;1664116;86;20907;-57
2022/01/10 00:46:28;;;;;;;31.10;11.78;;;;;;;6.36;100.00;84368.97;1664011;85;21610;-62
2022/01/10 00:48:55;;;;;;;25.65;11.28;;;;;;;6.26;100.00;87579.63;1664520;86;21003;-62
2022/01/10 00:51:22;;;;;;;23.85;11.53;;;;;;;6.19;100.00;88078.17;1676255;85;21504;-58
2022/01/10 00:53:50;;;;;;;23.52;11.22;;;;;;;6.14;100.00;86203.67;1680098;85;21004;-58
2022/01/10 00:56:17;;;;;;;26.37;11.48;;;;;;;6.08;100.00;83312.58;1677082;85;21053;-58
2022/01/10 00:58:44;;;;;;;26.52;11.30;;;;;;;6.05;100.00;81782.34;1677148;85;21153;-58
2022/01/10 01:01:11;;;;;;;25.95;11.40;;;;;;;6.02;100.00;79238.52;1679792;85;21046;-58
2022/01/10 01:03:38;;;;;;;25.08;11.38;;;;;;;6.02;100.00;74332.70;1677057;85;21124;-58
2022/01/10 01:06:05;;;;;;;25.35;11.33;;;;;;;5.99;100.00;71119.16;1649538;85;21005;-58
2022/01/10 01:08:34;;;;;;;23.27;10.90;;;;;;;5.96;100.00;71284.27;1680141;85;21098;-59
2022/01/10 01:13:41;;;;;;;22.67;10.55;;;;;;;5.93;100.00;66724.02;1676656;85;21148;-58
2022/01/10 01:24:03;;;;;;;28.87;11.30;;;;;;;5.91;100.00;61834.59;1673466;84;20962;-59
2022/01/10 01:26:32;;;;;;;26.62;12.43;;;;;;;5.91;100.00;61834.59;1677060;85;21477;-59
2022/01/10 01:28:58;;;;;;;33.23;14.25;;;;;;;5.91;100.00;61534.42;1680437;85;21088;-59
2022/01/10 01:31:25;;;;;;;25.72;12.10;;;;;;;5.92;100.00;59371.41;1676487;85;21114;-59
2022/01/10 01:33:52;;;;;;;25.23;12.10;;;;;;;5.91;100.00;59068.77;1677192;85;21522;-59
2022/01/10 01:36:24;;;;;;;25.40;12.05;;;;;;;5.89;100.00;60279.39;1679788;85;21087;-59
2022/01/10 01:38:52;;;;;;;29.40;11.48;;;;;;;5.88;100.00;58893.96;1677404;85;20880;-59
2022/01/10 01:43:50;;;;;;;24.25;12.23;;;;;;;5.91;100.00;56113.67;1679988;85;21607;-58
2022/01/10 01:46:17;;;;;;;24.85;11.45;;;;;;;5.89;100.00;55607.88;1680044;85;21067;-59
2022/01/10 01:48:44;;;;;;;24.75;11.45;;;;;;;5.93;100.00;52083.68;1677187;85;21035;-58
2022/01/10 01:51:12;;;;;;;28.00;10.82;;;;;;;5.94;100.00;51580.41;1644199;86;21468;-61
2022/01/10 01:53:39;;;;;;;23.70;11.18;;;;;;;5.96;100.00;50911.19;1664097;86;21105;-62
2022/01/10 01:56:07;;;;;;;29.87;13.08;;;;;;;5.97;100.00;50408.52;1663919;86;20971;-62
2022/01/10 01:58:36;;;;;;;30.48;13.03;;;;;;;5.95;100.00;51413.91;1664059;85;21504;-57
2022/01/10 02:01:04;;;;;;;32.70;14.18;;;;;;;5.96;100.00;52758.27;1664089;85;20967;-58
2022/01/10 02:03:33;;;;;;;34.43;13.48;;;;;;;5.95;100.00;53093.27;1664220;86;21113;-58
2022/01/10 02:06:02;;;;;;;40.00;13.38;;;;;;;5.98;100.00;51752.51;1671647;85;21047;-58
2022/01/10 02:08:29;;;;;;;28.42;13.62;;;;;;;5.98;100.00;50576.84;1664023;85;21058;-58
2022/01/10 02:10:56;;;;;;;29.63;12.18;;;;;;;5.98;100.00;51752.51;1664367;85;21444;-61
2022/01/10 02:13:22;;;;;;;34.63;13.90;;;;;;;5.98;100.00;51752.51;1664090;86;21058;-62
2022/01/10 02:15:57;;;;;;;35.23;14.75;;;;;;;5.98;100.00;52087.90;1664319;85;20998;-62
2022/01/10 02:18:20;;;;;;;34.33;14.45;;;;;;;5.95;100.00;53093.27;1663519;85;20974;-62
2022/01/10 02:20:49;;;;;;;31.60;12.70;;;;;;;5.92;100.00;53762.35;1664032;85;20951;-63
2022/01/10 02:23:16;;;;;;;31.52;12.65;;;;;;;5.91;100.00;53256.94;1642103;85;21089;-58
2022/01/10 02:25:48;;;;;;;31.90;13.18;;;;;;;5.88;100.00;53254.56;1658424;86;20951;-59
2022/01/10 02:28:15;;;;;;;32.85;13.62;;;;;;;5.86;100.00;52413.42;1664346;85;21046;-58
2022/01/10 02:30:42;;;;;;;40.85;15.38;;;;;;;5.88;100.00;50568.18;1663871;86;21715;-57
2022/01/10 02:33:09;;;;;;;33.45;13.28;;;;;;;5.86;100.00;50062.92;1663878;85;20951;-58
2022/01/10 02:35:52;;;;;;;35.03;14.18;;;;;;;5.84;100.00;50564.99;1664278;86;21098;-58
2022/01/10 02:38:08;;;;;;;37.75;13.35;;;;;;;5.81;100.00;50561.80;1640890;86;21027;-58
2022/01/10 02:40:36;;;;;;;31.52;12.23;;;;;;;5.78;100.00;49384.64;1664369;85;21026;-58
2022/01/10 02:43:07;;;;;;;33.58;13.28;;;;;;;5.70;100.00;50888.28;1664642;86;21142;-62
2022/01/10 02:45:34;;;;;;;33.18;14.28;;;;;;;5.63;100.00;51553.05;1663911;86;21547;-63
2022/01/10 02:48:01;;;;;;;36.53;13.22;;;;;;;5.61;100.00;47526.19;1663691;86;21527;-63
2022/01/10 02:50:29;;;;;;;31.00;14.05;;;;;;;5.61;100.00;47526.19;1663527;85;21034;-63
2022/01/10 02:52:56;;;;;;;30.77;13.55;;;;;;;5.60;100.00;46017.21;1664353;85;20908;-62
2022/01/10 02:55:22;;;;;;;34.98;13.85;;;;;;;5.62;100.00;43506.77;1663882;85;21142;-63
2022/01/10 02:57:49;;;;;;;30.12;13.18;;;;;;;5.65;100.00;41668.04;1664467;85;20998;-62
2022/01/10 03:00:21;;;;;;;34.15;13.28;;;;;;;5.64;100.00;41165.34;1663950;86;21094;-62
2022/01/10 03:02:51;;;;;;;33.70;13.53;;;;;;;5.61;100.00;42166.59;1664282;86;20997;-62
2022/01/10 03:05:19;;;;;;;28.00;12.85;;;;;;;5.60;100.00;41496.91;1671765;85;21007;-62
2022/01/10 03:07:47;;;;;;;31.35;14.25;;;;;;;5.59;100.00;39823.53;1664724;85;21769;-62
2022/01/10 03:10:15;;;;;;;29.57;12.80;;;;;;;5.59;100.00;39823.53;1642640;86;21574;-63
2022/01/10 03:12:42;;;;;;;38.95;14.47;;;;;;;5.58;100.00;39655.59;1664264;85;21569;-62
2022/01/10 03:15:11;;;;;;;32.23;13.48;;;;;;;5.55;100.00;39319.02;1642801;86;21428;-62
2022/01/10 03:17:39;;;;;;;27.40;12.63;;;;;;;5.54;100.00;39318.30;1664274;86;21601;-62
2022/01/10 03:20:09;;;;;;;30.80;13.88;;;;;;;5.52;100.00;38815.36;1664209;86;21389;-62
2022/01/10 03:22:36;;;;;;;26.15;13.32;;;;;;;5.48;100.00;38812.51;1664446;86;20971;-62
2022/01/10 03:25:05;;;;;;;28.80;13.50;;;;;;;5.47;100.00;38143.32;1664227;85;21023;-62
2022/01/10 03:27:34;;;;;;;34.48;15.50;;;;;;;5.46;100.00;37641.69;1643215;86;21281;-61
2022/01/10 03:30:00;;;;;;;39.60;14.75;;;;;;;5.45;100.00;36138.00;1664415;85;20907;-62
2022/01/10 03:32:27;;;;;;;29.50;12.58;;;;;;;5.45;100.00;36138.00;1663973;86;21144;-62
2022/01/10 03:34:57;;;;;;;32.38;15.30;;;;;;;5.42;100.00;35969.01;1664498;85;20899;-62
2022/01/10 03:37:25;;;;;;;33.65;14.40;;;;;;;5.31;100.00;39302.40;1663915;86;21125;-62
2022/01/10 03:39:52;;;;;;;29.23;13.75;;;;;;;5.31;100.00;39302.40;1664490;86;21495;-62
2022/01/10 03:42:19;;;;;;;28.20;13.62;;;;;;;5.27;100.00;40803.83;1663918;86;21041;-63
2022/01/10 03:44:46;;;;;;;38.20;16.15;;;;;;;5.21;100.00;41300.89;1663903;85;21511;-63
2022/01/10 03:47:12;;;;;;;42.13;17.70;;;;;;;5.11;100.00;41962.81;1663780;86;21098;-63
2022/01/10 03:49:40;;;;;;;40.45;16.62;;;;;;;5.11;100.00;41962.81;1663951;86;21540;-62
2022/01/10 03:52:07;;;;;;;39.63;17.92;;;;;;;5.11;100.00;41294.08;1664002;85;20959;-62
2022/01/10 03:54:33;;;;;;;41.10;18.27;;;;;;;5.06;100.00;42292.97;1663840;85;21102;-62
2022/01/10 03:57:00;;;;;;;45.55;19.10;;;;;;;4.95;100.00;45462.62;1664341;86;21151;-63
2022/01/10 03:59:27;;;;;;;38.95;18.45;;;;;;;4.90;100.00;44622.02;1663592;85;21062;-62
2022/01/10 04:01:55;;;;;;;45.88;19.15;;;;;;;4.90;100.00;44622.02;1664340;85;21074;-62
2022/01/10 04:04:21;;;;;;;47.73;18.92;;;;;;;4.87;100.00;44285.88;1664030;85;22157;-63
2022/01/10 04:06:48;;;;;;;45.20;19.30;;;;;;;4.83;100.00;43780.98;1664299;86;21030;-63
2022/01/10 04:09:19;;;;;;;42.10;18.45;;;;;;;4.84;100.00;43112.97;1664208;86;21154;-58
2022/01/10 04:11:44;;;;;;;44.90;19.07;;;;;;;4.82;100.00;41607.12;1664031;86;21030;-60
2022/01/10 04:14:12;;;;;;;43.28;17.98;;;;;;;4.80;100.00;40770.20;1663954;85;21151;-58
2022/01/10 04:16:39;;;;;;;38.42;15.83;;;;;;;4.79;100.00;39433.29;1664137;86;21058;-59
2022/01/10 04:19:07;;;;;;;41.18;16.50;;;;;;;4.75;100.00;41100.56;1664557;86;20972;-59
2022/01/10 04:21:34;;;;;;;45.05;16.73;;;;;;;4.65;100.00;43767.03;1664133;85;21574;-58
2022/01/10 04:24:00;;;;;;;44.35;17.17;;;;;;;4.56;100.00;45766.56;1664444;86;20966;-58
2022/01/10 04:26:27;;;;;;;36.05;16.05;;;;;;;4.51;100.00;44926.36;1671071;85;21153;-59
2022/01/10 04:28:54;;;;;;;40.03;15.93;;;;;;;4.50;100.00;42084.61;1664575;85;21544;-59
2022/01/10 04:31:20;;;;;;;41.58;16.75;;;;;;;4.49;100.00;41248.38;1663478;86;21081;-58
2022/01/10 04:33:47;;;;;;;34.75;15.78;;;;;;;4.41;100.00;41743.68;1663850;85;21819;-58
2022/01/10 04:36:14;;;;;;;42.00;15.80;;;;;;;4.40;100.00;41408.94;1663224;85;21584;-59
2022/01/10 04:38:42;;;;;;;35.73;15.72;;;;;;;4.38;100.00;39237.43;1663586;86;21093;-59
2022/01/10 04:41:10;;;;;;;36.58;14.33;;;;;;;4.33;100.00;39567.55;1663275;85;20996;-59
2022/01/10 04:43:38;;;;;;;33.45;14.63;;;;;;;4.26;100.00;40230.66;1663616;86;21093;-59
2022/01/10 04:46:05;;;;;;;32.35;14.30;;;;;;;4.20;100.00;40726.89;1664116;85;21100;-59
2022/01/10 04:48:32;;;;;;;29.77;12.82;;;;;;;4.11;100.00;41053.93;1663611;85;21491;-58
2022/01/10 04:51:11;;;;;;;28.47;12.95;;;;;;;4.06;100.00;39882.25;1664047;85;20948;-59
2022/01/10 04:53:32;;;;;;;28.15;12.70;;;;;;;4.01;100.00;38044.64;1662434;86;21677;-59
2022/01/10 04:56:00;;;;;;;32.53;12.23;;;;;;;3.98;100.00;35876.43;1643242;86;21042;-58
2022/01/10 04:58:27;;;;;;;30.10;12.33;;;;;;;3.96;100.00;34209.61;1664052;85;21137;-59
2022/01/10 05:00:55;;;;;;;28.65;11.68;;;;;;;3.96;100.00;32378.52;1664283;86;21043;-59
2022/01/10 05:03:23;;;;;;;30.45;12.00;;;;;;;3.97;100.00;31214.39;1664327;85;21066;-57
2022/01/10 05:05:53;;;;;;;31.17;13.20;;;;;;;3.96;100.00;29550.62;1642703;85;21066;-58
2022/01/10 05:08:21;;;;;;;26.52;12.23;;;;;;;3.97;100.00;28054.74;1663769;85;21476;-58
2022/01/10 05:10:49;;;;;;;27.15;11.53;;;;;;;3.99;100.00;26726.41;1664226;86;21603;-58
2022/01/10 05:13:16;;;;;;;30.52;12.78;;;;;;;3.98;100.00;25729.45;1664108;85;21046;-63
2022/01/10 05:15:45;;;;;;;30.62;12.50;;;;;;;3.96;100.00;25396.31;1663963;85;21098;-64
2022/01/10 05:18:11;;;;;;;32.25;12.88;;;;;;;3.96;100.00;25230.24;1663769;85;21433;-61
2022/01/10 05:20:37;;;;;;;28.15;12.40;;;;;;;4.00;100.00;24235.91;1663903;85;21614;-63
2022/01/10 05:23:04;;;;;;;26.73;12.10;;;;;;;4.01;100.00;24070.36;1664423;85;21142;-62
2022/01/10 05:25:36;;;;;;;26.95;12.30;;;;;;;4.03;100.00;23738.80;1663899;86;21058;-62
2022/01/10 05:27:59;;;;;;;32.38;12.75;;;;;;;4.04;100.00;23739.27;1663670;86;21488;-63
2022/01/10 05:30:26;;;;;;;33.55;12.53;;;;;;;4.06;100.00;23408.42;1663394;85;21066;-61
2022/01/10 05:32:53;;;;;;;34.65;13.08;;;;;;;4.09;100.00;22745.61;1663567;86;20995;-63
2022/01/10 05:35:22;;;;;;;36.93;13.72;;;;;;;4.16;100.00;21752.95;1662644;85;21125;-62
2022/01/10 05:37:49;;;;;;;40.05;13.80;;;;;;;4.19;100.00;21422.36;1663622;86;21157;-62
2022/01/10 05:40:16;;;;;;;36.55;13.30;;;;;;;4.21;100.00;21755.10;1663280;85;21319;-63
2022/01/10 05:42:43;;;;;;;37.33;12.58;;;;;;;4.22;100.00;22087.46;1663371;86;21010;-63
2022/01/10 05:45:09;;;;;;;35.98;13.15;;;;;;;4.24;100.00;22254.31;1663974;85;20975;-62
2022/01/10 05:47:41;;;;;;;46.00;13.45;;;;;;;4.23;100.00;22585.86;1663429;86;21866;-62
2022/01/10 05:50:07;;;;;;;42.73;13.88;;;;;;;4.24;100.00;22918.32;1663019;85;21015;-62
2022/01/10 05:52:37;;;;;;;31.20;13.40;;;;;;;4.27;100.00;22587.63;1663299;85;45636;-62
2022/01/10 05:55:05;;;;;;;30.35;13.05;;;;;;;4.27;100.00;22421.62;1641904;86;21468;-62
2022/01/10 05:57:34;;;;;;;37.90;13.03;;;;;;;4.32;100.00;22257.38;1663560;86;21022;-62
2022/01/10 06:00:01;;;;;;;33.13;12.63;;;;;;;4.34;100.00;22590.30;1663685;85;21006;-62
2022/01/10 06:02:31;;;;;;;41.95;13.65;;;;;;;4.35;100.00;22756.77;1663234;86;20970;-63
2022/01/10 06:04:59;;;;;;;36.10;13.10;;;;;;;4.36;100.00;22757.22;1664164;86;21027;-64
2022/01/10 06:07:29;;;;;;;30.85;12.03;;;;;;;4.39;100.00;22426.47;1662727;86;21283;-63
2022/01/10 06:09:56;;;;;;;29.48;11.73;;;;;;;4.39;100.00;22758.78;1664215;85;20912;-63
2022/01/10 06:12:22;;;;;;;29.92;12.47;;;;;;;4.39;100.00;23755.01;1663390;85;21511;-63
2022/01/10 06:14:50;;;;;;;31.27;12.43;;;;;;;4.37;100.00;25083.10;1663680;85;21538;-63
2022/01/10 06:17:16;;;;;;;30.32;12.70;;;;;;;4.34;100.00;26244.92;1641878;86;21037;-62
2022/01/10 06:19:43;;;;;;;36.73;13.65;;;;;;;4.30;100.00;27074.51;1663912;86;21105;-63
2022/01/10 06:22:10;;;;;;;28.25;11.85;;;;;;;4.29;100.00;27406.49;1664130;85;21019;-62
2022/01/10 06:24:37;;;;;;;32.33;12.75;;;;;;;4.29;100.00;27572.75;1664287;85;21846;-63
2022/01/10 06:27:05;;;;;;;35.28;13.25;;;;;;;4.29;100.00;27572.75;1664186;85;21034;-62
2022/01/10 06:29:34;;;;;;;32.10;12.78;;;;;;;4.31;100.00;27074.77;1666469;84;20946;-63
2022/01/10 06:32:02;;;;;;;28.62;12.13;;;;;;;4.29;100.00;27739.02;1676493;84;21081;-62
2022/01/10 06:34:30;;;;;;;33.67;13.03;;;;;;;4.28;100.00;28569.95;1683864;85;21047;-63
2022/01/10 06:36:59;;;;;;;28.67;11.28;;;;;;;4.25;100.00;29899.02;1748987;82;21491;-62
2022/01/10 06:39:26;;;;;;;27.67;11.68;;;;;;;4.24;100.00;30064.83;1746098;81;21054;-63
2022/01/10 06:41:53;;;;;;;33.42;13.72;;;;;;;4.23;100.00;30563.42;1743905;81;21044;-63
2022/01/10 06:44:20;;;;;;;30.20;11.73;;;;;;;4.22;100.00;31228.20;1731717;81;21082;-63
2022/01/10 06:46:47;;;;;;;26.42;11.00;;;;;;;4.20;100.00;31559.88;1719228;82;21052;-63
2022/01/10 06:49:15;;;;;;;22.37;10.00;;;;;;;4.18;100.00;32058.33;1740235;82;21097;-62
2022/01/10 06:51:42;;;;;;;27.52;11.25;;;;;;;4.15;100.00;31890.38;1741746;81;21491;-63
2022/01/10 06:54:09;;;;;;;30.77;11.90;;;;;;;4.14;100.00;31723.34;1749423;81;21053;-63
2022/01/10 06:56:36;;;;;;;31.02;13.18;;;;;;;4.13;100.00;31722.45;1746458;81;21036;-63
2022/01/10 06:59:03;;;;;;;26.27;11.80;;;;;;;4.12;100.00;31555.73;1749347;81;21029;-63
2022/01/10 07:01:35;;;;;;;29.75;11.35;;;;;;;4.13;100.00;31056.80;1749471;81;21942;-63
2022/01/10 07:04:02;;;;;;;33.98;12.53;;;;;;;4.14;100.00;30891.00;1736709;81;21426;-63
2022/01/10 07:06:29;;;;;;;31.10;11.88;;;;;;;4.14;100.00;30891.00;1718153;82;21054;-63
2022/01/10 07:08:57;;;;;;;23.65;10.40;;;;;;;4.13;100.00;31389.90;1736565;81;21073;-63
2022/01/10 07:11:26;;;;;;;29.48;12.03;;;;;;;4.14;100.00;31556.62;1732792;81;21019;-62
2022/01/10 07:13:53;;;;;;;26.37;11.80;;;;;;;4.14;100.00;31556.62;1729643;81;21117;-64
2022/01/10 07:16:20;;;;;;;27.15;11.65;;;;;;;4.14;100.00;31390.49;1722564;81;21138;-63
2022/01/10 07:18:53;;;;;;;27.80;12.35;;;;;;;4.15;100.00;31390.79;1727982;82;21075;-65
2022/01/10 07:21:22;;;;;;;26.80;12.03;;;;;;;4.11;100.00;32719.95;1669711;84;21131;-63
2022/01/10 07:23:49;;;;;;;29.82;12.50;;;;;;;4.09;100.00;32718.71;1658235;84;21136;-64
2022/01/10 07:26:22;;;;;;;24.75;12.45;;;;;;;4.08;100.00;32551.64;1658134;85;21595;-63
2022/01/10 07:28:49;;;;;;;26.07;12.28;;;;;;;4.06;100.00;32051.11;1657148;85;21035;-64
2022/01/10 07:31:16;;;;;;;31.10;12.47;;;;;;;4.03;100.00;31550.09;1665332;84;21113;-63
2022/01/10 07:33:43;;;;;;;28.70;13.80;;;;;;;4.04;100.00;30386.12;1661953;84;21300;-63
2022/01/10 07:36:09;;;;;;;27.35;14.45;;;;;;;4.03;100.00;28889.16;1696360;83;21616;-63
2022/01/10 07:38:37;;;;;;;28.42;14.38;;;;;;;4.02;100.00;27725.00;1697669;82;21592;-64
2022/01/10 07:41:12;;;;;;;31.73;15.18;;;;;;;3.98;100.00;26726.15;1697555;83;21178;-63
2022/01/10 07:43:41;;;;;;;31.00;15.68;;;;;;;3.95;100.00;26226.25;1674855;83;21157;-64
2022/01/10 07:46:11;;;;;;;36.03;17.00;;;;;;;3.87;100.00;27052.76;1688915;83;21498;-64
2022/01/10 07:48:40;;;;;;;37.17;16.95;;;;;;;3.80;100.00;28045.92;1689669;83;21077;-63
2022/01/10 07:51:12;;;;;;;34.18;16.82;;;;;;;3.72;100.00;28042.18;1660191;85;21003;-63
2022/01/10 07:53:37;;;;;;;34.48;16.23;;;;;;;3.68;100.00;27043.43;1689607;84;21097;-64
2022/01/10 07:56:05;;;;;;;30.08;14.93;;;;;;;3.65;100.00;25879.60;1673239;84;21087;-65
2022/01/10 07:58:32;;;;;;;31.60;13.60;;;;;;;3.61;100.00;25047.71;1724142;81;21555;-63
2022/01/10 08:00:59;;;;;;;23.70;12.03;;;;;;;3.55;100.00;24713.18;1724021;81;21106;-63
2022/01/10 08:03:26;;;;;;;29.72;12.90;;;;;;;3.52;100.00;24048.13;1725267;81;21777;-63
2022/01/10 08:05:53;;;;;;;26.85;12.80;;;;;;;3.48;100.00;23216.77;1724194;81;21050;-63
2022/01/10 08:08:19;;;;;;;30.75;13.53;;;;;;;3.43;100.00;21722.91;1726712;81;21618;-63
2022/01/10 08:10:46;;;;;;;28.12;13.08;;;;;;;3.42;100.00;20562.47;1725958;81;21655;-63
2022/01/10 08:13:17;;;;;;;27.07;13.93;;;;;;;3.43;100.00;19568.71;1664075;84;21095;-63
2022/01/10 08:15:44;;;;;;;24.50;12.05;;;;;;;3.40;100.00;18905.27;1691245;83;22164;-62
2022/01/10 08:18:12;;;;;;;27.75;13.60;;;;;;;3.37;100.00;18904.12;1692660;83;21082;-63
2022/01/10 08:20:40;;;;;;;21.40;10.80;;;;;;;3.34;100.00;19565.17;1688053;82;21064;-64
2022/01/10 08:23:08;;;;;;;29.90;12.55;;;;;;;3.28;100.00;20225.46;1695687;82;21636;-64
2022/01/10 08:25:35;;;;;;;18.85;10.75;;;;;;;3.26;100.00;20224.85;1658026;84;21261;-66
2022/01/10 08:28:02;;;;;;;21.15;11.18;;;;;;;3.25;100.00;19727.42;1659599;84;21966;-59
2022/01/10 08:30:30;;;;;;;19.80;9.98;;;;;;;3.21;100.00;20222.83;1661813;84;21590;-58
2022/01/10 08:32:57;;;;;;;17.00;10.05;;;;;;;3.17;100.00;20717.85;1722039;81;21051;-59
2022/01/10 08:35:25;;;;;;;19.48;10.68;;;;;;;3.14;100.00;21213.92;1724799;81;21086;-59
2022/01/10 08:37:52;;;;;;;16.07;10.10;;;;;;;3.12;100.00;21047.45;1734488;81;20978;-58
2022/01/10 08:40:19;;;;;;;17.77;10.30;;;;;;;3.11;100.00;21046.82;1735654;81;21177;-58
2022/01/10 08:42:46;;;;;;;17.02;9.43;;;;;;;3.10;100.00;20715.38;1742228;81;21354;-57
2022/01/10 08:45:13;;;;;;;17.23;9.48;;;;;;;3.11;100.00;20384.59;1738655;81;21464;-60
2022/01/10 08:47:40;;;;;;;17.70;8.78;;;;;;;3.11;100.00;20053.41;1733096;81;21087;-58
2022/01/10 08:50:09;;;;;;;19.73;8.93;;;;;;;3.11;100.00;20053.41;1734315;81;21087;-60
2022/01/10 08:52:39;;;;;;;17.40;8.70;;;;;;;3.12;100.00;20384.79;1732723;81;21129;-57
2022/01/10 08:55:08;;;;;;;15.83;8.30;;;;;;;3.12;100.00;21378.52;1732197;81;21161;-59
2022/01/10 08:57:36;;;;;;;17.17;7.97;;;;;;;3.09;100.00;22371.43;1732514;81;21141;-59
2022/01/10 09:00:08;;;;;;;15.95;8.10;;;;;;;3.07;100.00;23530.30;1735430;81;21126;-59
2022/01/10 09:02:37;;;;;;;14.87;8.55;;;;;;;3.05;100.00;24358.39;1731160;81;21522;-58
2022/01/10 09:05:05;;;;;;;17.42;7.97;;;;;;;3.05;100.00;25021.31;1733159;81;21146;-59
2022/01/10 09:07:32;;;;;;;19.05;8.10;;;;;;;3.07;100.00;25022.28;1731086;81;21421;-60
2022/01/10 09:09:59;;;;;;;13.60;7.55;;;;;;;3.07;100.00;24856.71;1735102;81;21131;-57
2022/01/10 09:12:27;;;;;;;14.85;8.35;;;;;;;3.07;100.00;25188.35;1729634;81;21860;-60
2022/01/10 09:14:54;;;;;;;18.92;8.83;;;;;;;3.06;100.00;25851.20;1730364;81;21886;-58
2022/01/10 09:17:21;;;;;;;14.53;7.83;;;;;;;3.06;100.00;26182.93;1730235;81;21142;-59
2022/01/10 09:19:47;;;;;;;15.28;7.83;;;;;;;3.07;100.00;26017.56;1723842;81;21269;-58
2022/01/10 09:22:14;;;;;;;14.93;7.42;;;;;;;3.08;100.00;25686.35;1726597;81;21059;-59
2022/01/10 09:24:44;;;;;;;14.18;6.92;;;;;;;3.09;100.00;26184.44;1731142;81;21126;-59
2022/01/10 09:27:09;;;;;;;16.77;7.78;;;;;;;3.07;100.00;26681.09;1728648;82;21479;-59
2022/01/10 09:29:36;;;;;;;12.58;7.30;;;;;;;3.06;100.00;27012.12;1728315;81;21071;-58
2022/01/10 09:32:04;;;;;;;14.18;7.08;;;;;;;3.05;100.00;27675.56;1727806;81;21508;-59
2022/01/10 09:34:31;;;;;;;14.15;7.12;;;;;;;3.04;100.00;28338.85;1730062;81;21761;-59
2022/01/10 09:37:00;;;;;;;15.80;9.00;;;;;;;3.03;100.00;29666.04;1730688;81;21100;-59
2022/01/10 09:39:27;;;;;;;16.80;8.65;;;;;;;2.99;100.00;30660.65;1703052;82;20952;-59
2022/01/10 09:41:56;;;;;;;17.45;10.20;;;;;;;2.97;100.00;30659.50;1728892;81;21438;-58
2022/01/10 09:44:23;;;;;;;16.65;10.58;;;;;;;2.97;100.00;30825.28;1729205;81;21075;-59
2022/01/10 09:46:51;;;;;;;18.75;9.95;;;;;;;2.96;100.00;31156.86;1730394;81;21079;-58
2022/01/10 09:49:18;;;;;;;15.63;9.15;;;;;;;2.96;100.00;31156.86;1730763;81;21077;-57
2022/01/10 09:51:45;;;;;;;16.55;9.33;;;;;;;2.94;100.00;31487.87;1728402;81;21068;-59
2022/01/10 09:54:12;;;;;;;14.70;7.90;;;;;;;2.94;100.00;31653.98;1717947;82;21945;-58
2022/01/10 09:56:39;;;;;;;12.85;7.15;;;;;;;2.93;100.00;31819.49;1720520;81;21345;-57
2022/01/10 09:59:06;;;;;;;10.53;6.28;;;;;;;2.93;100.00;31985.61;1726585;81;21178;-61
2022/01/10 10:01:34;;;;;;;9.40;6.30;;;;;;;2.93;100.00;31487.58;1722438;81;21071;-58
2022/01/10 10:04:01;;;;;;;15.28;6.12;;;;;;;2.96;100.00;30824.70;1727284;81;21393;-59
2022/01/10 10:06:29;;;;;;;18.52;6.20;;;;;;;2.99;100.00;29996.14;1723931;81;21123;-59
2022/01/10 10:09:05;;;;;;;8.60;6.10;;;;;;;3.02;100.00;29997.84;1728209;81;21055;-59
2022/01/10 10:11:53;;;;;;;12.18;6.35;;;;;;;3.04;100.00;30331.10;1733223;81;21443;-58
2022/01/10 10:14:25;;;;;;;13.18;6.45;;;;;;;3.06;100.00;31162.43;1721936;81;21181;-59
2022/01/10 10:16:53;;;;;;;12.68;6.65;;;;;;;3.06;100.00;32325.75;1719766;81;21425;-59
2022/01/10 10:19:41;;;;;;;12.03;6.75;;;;;;;3.09;100.00;33491.05;1723658;81;21030;-60
2022/01/10 10:22:08;;;;;;;13.83;7.05;;;;;;;3.08;100.00;35485.55;1711193;82;21103;-59
2022/01/10 10:24:35;;;;;;;14.93;6.72;;;;;;;3.09;100.00;36151.63;1720117;82;21032;-60
2022/01/10 10:27:04;;;;;;;15.00;6.55;;;;;;;3.11;100.00;36985.31;1717675;82;21072;-60
2022/01/10 10:29:30;;;;;;;14.53;6.95;;;;;;;3.13;100.00;37818.91;1713967;81;21088;-59
2022/01/10 10:31:57;;;;;;;11.30;6.47;;;;;;;3.15;100.00;39818.57;1677534;83;22271;-59
2022/01/10 10:34:29;;;;;;;12.18;6.50;;;;;;;3.14;100.00;42817.42;1716629;81;20905;-60
2022/01/10 10:37:12;;;;;;;15.95;6.90;;;;;;;3.17;100.00;44653.44;1713737;81;21121;-59
2022/01/10 10:39:42;;;;;;;14.00;7.33;;;;;;;3.19;100.00;45990.31;1715277;81;21074;-60
2022/01/10 10:42:11;;;;;;;15.78;6.55;;;;;;;3.20;100.00;51168.71;1710476;82;21121;-63
2022/01/10 10:44:39;;;;;;;12.53;6.30;;;;;;;3.21;100.00;55015.77;1714406;82;21111;-59
2022/01/10 10:47:07;;;;;;;12.65;5.85;;;;;;;3.22;100.00;57192.87;1712193;81;21047;-59
2022/01/10 10:49:44;;;;;;;9.45;6.00;;;;;;;3.24;100.00;56357.75;1713976;82;21048;-59
2022/01/10 10:52:07;;;;;;;12.80;5.55;;;;;;;3.27;100.00;57030.53;1710944;82;21037;-60
2022/01/10 10:54:35;;;;;;;10.48;6.15;;;;;;;3.24;100.00;65913.93;1711297;81;21111;-59
2022/01/10 10:57:06;;;;;;;13.65;5.85;;;;;;;3.24;100.00;72804.14;1711271;82;21368;-59
2022/01/10 10:59:43;;;;;;;9.05;5.47;;;;;;;3.26;100.00;72974.31;1714742;81;21104;-60
2022/01/10 11:02:03;;;;;;;10.00;5.65;;;;;;;3.27;100.00;74490.09;1711806;81;21437;-59
2022/01/10 11:04:31;;;;;;;13.53;5.35;;;;;;;3.29;100.00;78366.24;1678515;83;21126;-59
2022/01/10 11:06:59;;;;;;;17.62;5.65;;;;;;;3.29;100.00;82750.27;1683490;83;21081;-60
2022/01/10 11:09:26;;;;;;;29.82;6.65;;;;;;;3.32;100.00;78875.97;1682308;83;21523;-59
2022/01/10 11:11:52;;;;;;;12.50;5.22;;;;;;;3.38;100.00;80064.42;1676947;83;21091;-59
2022/01/10 11:14:24;;;;;;;10.08;5.30;;;;;;;3.41;100.00;84455.72;1685729;83;21112;-61
2022/01/10 11:16:52;;;;;;;9.28;4.45;;;;;;;3.43;100.00;88006.32;1636112;85;21083;-59
2022/01/10 11:19:25;;;;;;;6.70;4.47;;;;;;;3.47;100.00;91562.38;1638194;84;21125;-59
2022/01/10 11:22:03;;;;;;;10.47;4.73;;;;;;;3.50;100.00;99359.66;1715848;81;21016;-60
2022/01/10 11:24:52;;;;;;;12.73;4.80;;;;;;;3.51;100.00;107512.39;1716476;81;21063;-60
2022/01/10 11:27:34;;;;;;;15.30;5.08;;;;;;;3.54;100.00;112961.33;1713775;81;21056;-61
2022/01/10 11:30:32;;;;;;;9.53;6.10;;;;;;;3.54;100.00;115006.12;1711328;81;21133;-60
2022/01/10 11:33:14;;;;;;;10.55;6.25;;;;;;;3.57;100.00;119443.61;1712567;82;21142;-60
2022/01/10 11:35:47;;;;;;;9.55;5.25;;;;;;;3.58;100.00;125593.44;1707258;82;21138;-60
2022/01/10 11:38:45;;;;;;;12.20;5.87;;;;;;;3.60;100.00;124571.47;1709681;81;21786;-60